sensor_id;sensor_type;location;lat;lon;timestamp;P1;P2;P0
77320;PMS7003;66382;52.252;8.780;2023-02-15T00:01:30;31.75;31.75;21.00
77320;PMS7003;66382;52.252;8.780;2023-02-15T00:03:56;30.25;30.25;22.75
77320;PMS7003;66382;52.252;8.780;2023-02-15T00:06:22;32.25;32.25;20.50
77320;PMS7003;66382;52.252;8.780;2023-02-15T00:08:49;31.75;31.75;22.50
77320;PMS7003;66382;52.252;8.780;2023-02-15T00:11:16;30.50;30.50;21.00
77320;PMS7003;66382;52.252;8.780;2023-02-15T00:13:43;21.00;21.00;16.75
77320;PMS7003;66382;52.252;8.780;2023-02-15T00:16:09;29.25;29.25;20.25
77320;PMS7003;66382;52.252;8.780;2023-02-15T00:18:37;30.50;30.50;23.25
77320;PMS7003;66382;52.252;8.780;2023-02-15T00:21:03;35.00;35.00;23.00
77320;PMS7003;66382;52.252;8.780;2023-02-15T00:23:30;32.75;31.00;21.00
77320;PMS7003;66382;52.252;8.780;2023-02-15T00:26:05;29.50;29.50;21.00
77320;PMS7003;66382;52.252;8.780;2023-02-15T00:28:32;31.25;31.25;20.50
77320;PMS7003;66382;52.252;8.780;2023-02-15T00:31:02;32.50;32.50;22.75
77320;PMS7003;66382;52.252;8.780;2023-02-15T00:33:28;30.25;30.00;22.25
77320;PMS7003;66382;52.252;8.780;2023-02-15T00:35:55;29.75;29.75;20.75
77320;PMS7003;66382;52.252;8.780;2023-02-15T00:38:22;30.50;30.50;20.00
77320;PMS7003;66382;52.252;8.780;2023-02-15T00:40:51;34.75;33.00;23.75
77320;PMS7003;66382;52.252;8.780;2023-02-15T00:43:19;28.50;28.50;21.50
77320;PMS7003;66382;52.252;8.780;2023-02-15T00:45:44;30.25;30.25;22.75
77320;PMS7003;66382;52.252;8.780;2023-02-15T00:48:10;32.00;32.00;21.00
77320;PMS7003;66382;52.252;8.780;2023-02-15T00:50:36;27.50;26.25;20.00
77320;PMS7003;66382;52.252;8.780;2023-02-15T00:53:02;26.50;26.50;19.00
77320;PMS7003;66382;52.252;8.780;2023-02-15T00:55:27;25.25;25.25;20.00
77320;PMS7003;66382;52.252;8.780;2023-02-15T00:57:53;32.75;32.75;22.00
77320;PMS7003;66382;52.252;8.780;2023-02-15T01:00:20;32.00;32.00;23.25
77320;PMS7003;66382;52.252;8.780;2023-02-15T01:02:46;41.00;37.00;24.75
77320;PMS7003;66382;52.252;8.780;2023-02-15T01:05:12;44.00;40.75;25.75
77320;PMS7003;66382;52.252;8.780;2023-02-15T01:07:38;28.00;28.00;19.25
77320;PMS7003;66382;52.252;8.780;2023-02-15T01:10:04;30.00;30.00;21.50
77320;PMS7003;66382;52.252;8.780;2023-02-15T01:12:31;28.25;28.25;20.50
77320;PMS7003;66382;52.252;8.780;2023-02-15T01:14:57;26.50;26.50;18.25
77320;PMS7003;66382;52.252;8.780;2023-02-15T01:17:24;24.00;24.00;18.00
77320;PMS7003;66382;52.252;8.780;2023-02-15T01:19:50;27.25;27.25;21.25
77320;PMS7003;66382;52.252;8.780;2023-02-15T01:22:16;30.50;30.25;22.50
77320;PMS7003;66382;52.252;8.780;2023-02-15T01:24:41;35.50;32.50;23.75
77320;PMS7003;66382;52.252;8.780;2023-02-15T01:27:07;24.25;24.25;19.00
77320;PMS7003;66382;52.252;8.780;2023-02-15T01:29:33;29.75;29.75;20.25
77320;PMS7003;66382;52.252;8.780;2023-02-15T01:31:58;31.00;31.00;23.25
77320;PMS7003;66382;52.252;8.780;2023-02-15T01:34:25;38.00;36.75;23.25
77320;PMS7003;66382;52.252;8.780;2023-02-15T01:36:51;30.75;30.75;21.75
77320;PMS7003;66382;52.252;8.780;2023-02-15T01:39:17;33.00;31.75;24.00
77320;PMS7003;66382;52.252;8.780;2023-02-15T01:41:43;33.00;31.50;23.00
77320;PMS7003;66382;52.252;8.780;2023-02-15T01:47:12;32.75;32.75;24.00
77320;PMS7003;66382;52.252;8.780;2023-02-15T01:49:42;33.75;33.00;20.50
77320;PMS7003;66382;52.252;8.780;2023-02-15T01:52:12;32.00;32.00;22.50
77320;PMS7003;66382;52.252;8.780;2023-02-15T01:54:42;35.00;35.00;23.25
77320;PMS7003;66382;52.252;8.780;2023-02-15T01:57:12;34.50;34.50;24.00
77320;PMS7003;66382;52.252;8.780;2023-02-15T01:59:42;40.25;37.25;23.50
77320;PMS7003;66382;52.252;8.780;2023-02-15T02:02:14;28.00;28.00;23.25
77320;PMS7003;66382;52.252;8.780;2023-02-15T02:04:46;34.25;34.25;23.00
77320;PMS7003;66382;52.252;8.780;2023-02-15T02:07:14;35.50;35.50;24.00
77320;PMS7003;66382;52.252;8.780;2023-02-15T02:09:42;34.00;34.00;24.00
77320;PMS7003;66382;52.252;8.780;2023-02-15T02:12:09;33.25;33.25;22.25
77320;PMS7003;66382;52.252;8.780;2023-02-15T02:14:35;36.25;35.50;23.50
77320;PMS7003;66382;52.252;8.780;2023-02-15T02:17:03;35.00;33.75;23.25
77320;PMS7003;66382;52.252;8.780;2023-02-15T02:19:50;33.75;32.00;24.00
77320;PMS7003;66382;52.252;8.780;2023-02-15T02:28:50;33.00;33.00;23.25
77320;PMS7003;66382;52.252;8.780;2023-02-15T02:34:35;29.00;29.00;21.25
77320;PMS7003;66382;52.252;8.780;2023-02-15T02:37:09;38.75;37.50;24.25
77320;PMS7003;66382;52.252;8.780;2023-02-15T02:39:42;33.75;33.75;23.25
77320;PMS7003;66382;52.252;8.780;2023-02-15T02:42:17;31.50;29.50;15.75
77320;PMS7003;66382;52.252;8.780;2023-02-15T02:44:51;31.75;31.75;20.75
77320;PMS7003;66382;52.252;8.780;2023-02-15T02:47:22;28.00;27.25;16.75
77320;PMS7003;66382;52.252;8.780;2023-02-15T02:49:58;29.25;29.25;17.75
77320;PMS7003;66382;52.252;8.780;2023-02-15T02:52:34;28.50;28.50;18.75
77320;PMS7003;66382;52.252;8.780;2023-02-15T02:55:07;29.75;29.75;22.50
77320;PMS7003;66382;52.252;8.780;2023-02-15T02:57:37;30.00;30.00;22.50
77320;PMS7003;66382;52.252;8.780;2023-02-15T03:00:08;33.00;33.00;22.75
77320;PMS7003;66382;52.252;8.780;2023-02-15T03:02:37;37.25;37.00;22.00
77320;PMS7003;66382;52.252;8.780;2023-02-15T03:05:09;30.00;29.50;20.25
77320;PMS7003;66382;52.252;8.780;2023-02-15T03:07:40;33.50;33.50;22.25
77320;PMS7003;66382;52.252;8.780;2023-02-15T03:10:08;32.50;32.50;22.50
77320;PMS7003;66382;52.252;8.780;2023-02-15T03:12:35;35.75;34.25;23.00
77320;PMS7003;66382;52.252;8.780;2023-02-15T03:15:05;33.00;33.00;23.50
77320;PMS7003;66382;52.252;8.780;2023-02-15T03:17:35;40.75;37.00;23.25
77320;PMS7003;66382;52.252;8.780;2023-02-15T03:20:04;37.50;33.00;18.25
77320;PMS7003;66382;52.252;8.780;2023-02-15T03:22:37;37.75;37.00;24.25
77320;PMS7003;66382;52.252;8.780;2023-02-15T03:25:06;32.75;29.75;22.75
77320;PMS7003;66382;52.252;8.780;2023-02-15T03:27:37;36.75;36.75;22.50
77320;PMS7003;66382;52.252;8.780;2023-02-15T03:30:08;30.50;30.50;18.00
77320;PMS7003;66382;52.252;8.780;2023-02-15T03:32:37;33.75;33.75;23.00
77320;PMS7003;66382;52.252;8.780;2023-02-15T03:35:04;34.00;33.25;24.00
77320;PMS7003;66382;52.252;8.780;2023-02-15T03:37:34;34.50;34.00;23.00
77320;PMS7003;66382;52.252;8.780;2023-02-15T03:40:06;31.00;31.00;20.00
77320;PMS7003;66382;52.252;8.780;2023-02-15T03:42:36;31.75;30.50;22.50
77320;PMS7003;66382;52.252;8.780;2023-02-15T03:45:05;36.25;33.00;21.50
77320;PMS7003;66382;52.252;8.780;2023-02-15T03:47:37;31.75;31.75;22.25
77320;PMS7003;66382;52.252;8.780;2023-02-15T03:50:08;36.75;35.75;23.00
77320;PMS7003;66382;52.252;8.780;2023-02-15T03:52:40;38.50;37.50;24.75
77320;PMS7003;66382;52.252;8.780;2023-02-15T03:55:06;32.50;31.00;19.00
77320;PMS7003;66382;52.252;8.780;2023-02-15T03:57:32;37.75;37.00;24.00
77320;PMS7003;66382;52.252;8.780;2023-02-15T04:00:02;37.00;36.50;24.75
77320;PMS7003;66382;52.252;8.780;2023-02-15T04:02:32;29.50;27.75;19.00
77320;PMS7003;66382;52.252;8.780;2023-02-15T04:05:03;34.00;34.00;22.25
77320;PMS7003;66382;52.252;8.780;2023-02-15T04:07:29;34.75;33.75;24.00
77320;PMS7003;66382;52.252;8.780;2023-02-15T04:09:56;38.50;36.00;24.25
77320;PMS7003;66382;52.252;8.780;2023-02-15T04:12:22;37.50;37.00;23.25
77320;PMS7003;66382;52.252;8.780;2023-02-15T04:14:48;40.00;37.00;23.75
77320;PMS7003;66382;52.252;8.780;2023-02-15T04:17:13;31.50;31.25;22.75
77320;PMS7003;66382;52.252;8.780;2023-02-15T04:19:39;35.50;35.50;23.50
77320;PMS7003;66382;52.252;8.780;2023-02-15T04:22:05;30.25;30.25;21.75
77320;PMS7003;66382;52.252;8.780;2023-02-15T04:24:30;34.25;34.00;21.50
77320;PMS7003;66382;52.252;8.780;2023-02-15T04:26:58;34.00;33.25;23.00
77320;PMS7003;66382;52.252;8.780;2023-02-15T04:29:24;34.25;34.25;23.25
77320;PMS7003;66382;52.252;8.780;2023-02-15T04:31:52;39.00;37.25;22.25
77320;PMS7003;66382;52.252;8.780;2023-02-15T04:34:19;38.75;37.75;23.25
77320;PMS7003;66382;52.252;8.780;2023-02-15T04:36:44;37.75;37.00;25.00
77320;PMS7003;66382;52.252;8.780;2023-02-15T04:39:11;31.75;30.50;22.75
77320;PMS7003;66382;52.252;8.780;2023-02-15T04:41:38;36.50;36.50;25.00
77320;PMS7003;66382;52.252;8.780;2023-02-15T04:44:05;34.00;34.00;23.00
77320;PMS7003;66382;52.252;8.780;2023-02-15T04:46:31;28.50;28.00;19.00
77320;PMS7003;66382;52.252;8.780;2023-02-15T04:48:57;32.25;31.50;23.25
77320;PMS7003;66382;52.252;8.780;2023-02-15T04:51:23;31.50;31.50;22.25
77320;PMS7003;66382;52.252;8.780;2023-02-15T04:53:49;35.50;34.50;22.50
77320;PMS7003;66382;52.252;8.780;2023-02-15T04:56:15;39.00;35.25;21.00
77320;PMS7003;66382;52.252;8.780;2023-02-15T04:58:40;39.75;36.75;24.00
77320;PMS7003;66382;52.252;8.780;2023-02-15T05:01:08;35.00;35.00;25.00
77320;PMS7003;66382;52.252;8.780;2023-02-15T05:03:34;34.00;34.00;22.25
77320;PMS7003;66382;52.252;8.780;2023-02-15T05:06:00;34.00;33.75;25.00
77320;PMS7003;66382;52.252;8.780;2023-02-15T05:08:26;31.25;31.25;22.50
77320;PMS7003;66382;52.252;8.780;2023-02-15T05:10:52;37.50;35.50;25.00
77320;PMS7003;66382;52.252;8.780;2023-02-15T05:13:17;39.25;37.75;24.50
77320;PMS7003;66382;52.252;8.780;2023-02-15T05:15:46;38.00;37.50;24.50
77320;PMS7003;66382;52.252;8.780;2023-02-15T05:18:14;32.75;32.75;21.50
77320;PMS7003;66382;52.252;8.780;2023-02-15T05:20:40;33.75;33.75;24.00
77320;PMS7003;66382;52.252;8.780;2023-02-15T05:23:06;34.75;34.75;24.00
77320;PMS7003;66382;52.252;8.780;2023-02-15T05:25:31;35.00;34.75;24.50
77320;PMS7003;66382;52.252;8.780;2023-02-15T05:27:57;38.25;36.00;24.00
77320;PMS7003;66382;52.252;8.780;2023-02-15T05:30:23;39.25;38.00;24.00
77320;PMS7003;66382;52.252;8.780;2023-02-15T05:32:49;33.00;33.00;21.75
77320;PMS7003;66382;52.252;8.780;2023-02-15T05:35:16;42.25;39.75;27.50
77320;PMS7003;66382;52.252;8.780;2023-02-15T05:37:42;36.25;35.25;25.00
77320;PMS7003;66382;52.252;8.780;2023-02-15T05:40:08;41.75;38.25;25.00
77320;PMS7003;66382;52.252;8.780;2023-02-15T05:42:34;33.75;33.50;22.25
77320;PMS7003;66382;52.252;8.780;2023-02-15T05:45:00;40.25;39.00;24.75
77320;PMS7003;66382;52.252;8.780;2023-02-15T05:47:26;39.00;37.75;24.25
77320;PMS7003;66382;52.252;8.780;2023-02-15T05:49:51;48.00;43.75;29.00
77320;PMS7003;66382;52.252;8.780;2023-02-15T05:52:18;44.25;39.25;24.75
77320;PMS7003;66382;52.252;8.780;2023-02-15T05:54:44;41.00;39.75;25.00
77320;PMS7003;66382;52.252;8.780;2023-02-15T05:57:10;35.50;35.50;24.25
77320;PMS7003;66382;52.252;8.780;2023-02-15T05:59:35;36.50;36.50;25.00
77320;PMS7003;66382;52.252;8.780;2023-02-15T06:02:01;35.50;35.50;25.00
77320;PMS7003;66382;52.252;8.780;2023-02-15T06:04:27;37.75;36.75;23.75
77320;PMS7003;66382;52.252;8.780;2023-02-15T06:06:55;40.25;38.25;25.75
77320;PMS7003;66382;52.252;8.780;2023-02-15T06:09:22;38.75;38.00;27.50
77320;PMS7003;66382;52.252;8.780;2023-02-15T06:11:48;46.33;41.67;26.00
77320;PMS7003;66382;52.252;8.780;2023-02-15T06:14:13;41.00;39.00;24.00
77320;PMS7003;66382;52.252;8.780;2023-02-15T06:16:39;39.00;38.50;24.50
77320;PMS7003;66382;52.252;8.780;2023-02-15T06:19:05;35.50;35.50;24.00
77320;PMS7003;66382;52.252;8.780;2023-02-15T06:21:31;36.50;36.00;24.00
77320;PMS7003;66382;52.252;8.780;2023-02-15T06:23:56;37.75;37.75;25.25
77320;PMS7003;66382;52.252;8.780;2023-02-15T06:26:23;42.50;40.75;25.00
77320;PMS7003;66382;52.252;8.780;2023-02-15T06:28:49;37.50;35.25;20.00
77320;PMS7003;66382;52.252;8.780;2023-02-15T06:31:15;42.25;40.75;24.25
77320;PMS7003;66382;52.252;8.780;2023-02-15T06:33:41;39.75;38.75;25.25
77320;PMS7003;66382;52.252;8.780;2023-02-15T06:36:06;44.00;39.25;25.50
77320;PMS7003;66382;52.252;8.780;2023-02-15T06:38:32;33.50;33.50;24.50
77320;PMS7003;66382;52.252;8.780;2023-02-15T06:40:58;38.50;38.25;24.25
77320;PMS7003;66382;52.252;8.780;2023-02-15T06:43:25;26.00;26.00;22.00
77320;PMS7003;66382;52.252;8.780;2023-02-15T06:45:50;35.75;35.75;18.00
77320;PMS7003;66382;52.252;8.780;2023-02-15T06:48:16;41.50;39.25;25.25
77320;PMS7003;66382;52.252;8.780;2023-02-15T06:50:42;44.50;41.25;27.50
77320;PMS7003;66382;52.252;8.780;2023-02-15T06:53:08;44.75;41.50;26.50
77320;PMS7003;66382;52.252;8.780;2023-02-15T06:55:33;45.25;41.75;23.50
77320;PMS7003;66382;52.252;8.780;2023-02-15T06:57:59;35.50;35.50;24.75
77320;PMS7003;66382;52.252;8.780;2023-02-15T07:00:26;46.75;41.75;25.25
77320;PMS7003;66382;52.252;8.780;2023-02-15T07:02:53;35.50;35.50;23.50
77320;PMS7003;66382;52.252;8.780;2023-02-15T07:05:19;38.75;38.25;25.25
77320;PMS7003;66382;52.252;8.780;2023-02-15T07:07:44;39.25;37.75;23.75
77320;PMS7003;66382;52.252;8.780;2023-02-15T07:10:10;39.00;37.25;25.00
77320;PMS7003;66382;52.252;8.780;2023-02-15T07:12:36;45.75;42.25;25.50
77320;PMS7003;66382;52.252;8.780;2023-02-15T07:15:02;41.25;39.25;22.75
77320;PMS7003;66382;52.252;8.780;2023-02-15T07:17:29;37.50;36.25;23.75
77320;PMS7003;66382;52.252;8.780;2023-02-15T07:19:55;37.50;37.50;23.50
77320;PMS7003;66382;52.252;8.780;2023-02-15T07:22:20;49.75;43.25;27.00
77320;PMS7003;66382;52.252;8.780;2023-02-15T07:24:46;39.00;37.25;22.25
77320;PMS7003;66382;52.252;8.780;2023-02-15T07:27:12;43.00;41.00;24.25
77320;PMS7003;66382;52.252;8.780;2023-02-15T07:29:37;39.00;38.00;23.50
77320;PMS7003;66382;52.252;8.780;2023-02-15T07:32:03;30.25;30.25;20.00
77320;PMS7003;66382;52.252;8.780;2023-02-15T07:34:30;43.50;41.25;24.25
77320;PMS7003;66382;52.252;8.780;2023-02-15T07:36:56;38.25;37.50;22.75
77320;PMS7003;66382;52.252;8.780;2023-02-15T07:39:22;46.50;43.00;27.00
77320;PMS7003;66382;52.252;8.780;2023-02-15T07:41:47;43.25;38.75;25.00
77320;PMS7003;66382;52.252;8.780;2023-02-15T07:44:13;36.50;36.50;22.00
77320;PMS7003;66382;52.252;8.780;2023-02-15T07:46:40;41.00;39.50;25.00
77320;PMS7003;66382;52.252;8.780;2023-02-15T07:49:06;41.50;40.00;22.25
77320;PMS7003;66382;52.252;8.780;2023-02-15T07:51:33;35.00;33.50;22.25
77320;PMS7003;66382;52.252;8.780;2023-02-15T07:54:01;45.25;40.25;26.00
77320;PMS7003;66382;52.252;8.780;2023-02-15T07:56:26;45.25;40.00;24.75
77320;PMS7003;66382;52.252;8.780;2023-02-15T07:58:52;44.75;40.50;26.50
77320;PMS7003;66382;52.252;8.780;2023-02-15T08:01:18;37.75;37.25;24.75
77320;PMS7003;66382;52.252;8.780;2023-02-15T08:03:46;38.75;37.25;23.75
77320;PMS7003;66382;52.252;8.780;2023-02-15T08:06:12;32.50;32.50;21.25
77320;PMS7003;66382;52.252;8.780;2023-02-15T08:08:39;43.75;40.00;25.00
77320;PMS7003;66382;52.252;8.780;2023-02-15T08:11:06;38.00;37.75;21.25
77320;PMS7003;66382;52.252;8.780;2023-02-15T08:13:41;37.00;33.25;20.00
77320;PMS7003;66382;52.252;8.780;2023-02-15T08:16:08;36.25;35.00;19.75
77320;PMS7003;66382;52.252;8.780;2023-02-15T08:18:33;33.00;33.00;21.25
77320;PMS7003;66382;52.252;8.780;2023-02-15T08:20:59;37.50;36.75;20.75
77320;PMS7003;66382;52.252;8.780;2023-02-15T08:23:25;32.25;31.25;19.75
77320;PMS7003;66382;52.252;8.780;2023-02-15T08:25:52;40.00;39.25;21.25
77320;PMS7003;66382;52.252;8.780;2023-02-15T08:28:17;41.00;37.25;23.00
77320;PMS7003;66382;52.252;8.780;2023-02-15T08:30:43;37.75;36.25;21.75
77320;PMS7003;66382;52.252;8.780;2023-02-15T08:33:09;36.25;35.50;21.00
77320;PMS7003;66382;52.252;8.780;2023-02-15T08:35:34;30.25;30.25;18.00
77320;PMS7003;66382;52.252;8.780;2023-02-15T08:38:00;40.75;36.75;25.00
77320;PMS7003;66382;52.252;8.780;2023-02-15T08:40:26;38.50;34.75;23.00
77320;PMS7003;66382;52.252;8.780;2023-02-15T08:42:53;40.25;35.50;24.50
77320;PMS7003;66382;52.252;8.780;2023-02-15T08:45:19;36.75;36.00;22.25
77320;PMS7003;66382;52.252;8.780;2023-02-15T08:47:44;33.75;30.00;19.00
77320;PMS7003;66382;52.252;8.780;2023-02-15T08:50:10;35.50;34.50;22.25
77320;PMS7003;66382;52.252;8.780;2023-02-15T08:52:36;37.00;37.00;22.00
77320;PMS7003;66382;52.252;8.780;2023-02-15T08:55:01;33.50;33.50;17.50
77320;PMS7003;66382;52.252;8.780;2023-02-15T08:57:27;36.00;36.00;20.00
77320;PMS7003;66382;52.252;8.780;2023-02-15T08:59:54;28.75;28.75;16.00
77320;PMS7003;66382;52.252;8.780;2023-02-15T09:02:20;46.75;40.50;24.75
77320;PMS7003;66382;52.252;8.780;2023-02-15T09:04:45;38.00;37.25;25.00
77320;PMS7003;66382;52.252;8.780;2023-02-15T09:07:11;37.75;36.50;25.00
77320;PMS7003;66382;52.252;8.780;2023-02-15T09:09:37;38.75;36.75;20.75
77320;PMS7003;66382;52.252;8.780;2023-02-15T09:12:03;35.25;35.25;22.00
77320;PMS7003;66382;52.252;8.780;2023-02-15T09:14:28;34.50;34.50;20.25
77320;PMS7003;66382;52.252;8.780;2023-02-15T09:16:55;26.75;26.25;15.75
77320;PMS7003;66382;52.252;8.780;2023-02-15T09:19:21;33.50;32.25;20.50
77320;PMS7003;66382;52.252;8.780;2023-02-15T09:21:48;32.75;32.75;21.50
77320;PMS7003;66382;52.252;8.780;2023-02-15T09:24:14;36.25;36.25;23.25
77320;PMS7003;66382;52.252;8.780;2023-02-15T09:26:43;40.00;37.00;25.00
77320;PMS7003;66382;52.252;8.780;2023-02-15T09:29:10;38.00;35.00;21.25
77320;PMS7003;66382;52.252;8.780;2023-02-15T09:31:37;40.00;37.25;22.25
77320;PMS7003;66382;52.252;8.780;2023-02-15T09:34:05;35.75;35.25;23.00
77320;PMS7003;66382;52.252;8.780;2023-02-15T09:36:33;33.25;33.25;21.25
77320;PMS7003;66382;52.252;8.780;2023-02-15T09:39:01;42.25;38.75;23.25
77320;PMS7003;66382;52.252;8.780;2023-02-15T09:41:35;38.75;37.25;24.25
77320;PMS7003;66382;52.252;8.780;2023-02-15T09:44:26;39.00;37.75;24.00
77320;PMS7003;66382;52.252;8.780;2023-02-15T09:49:55;33.75;33.75;21.25
77320;PMS7003;66382;52.252;8.780;2023-02-15T09:52:33;33.50;33.25;23.00
77320;PMS7003;66382;52.252;8.780;2023-02-15T09:55:14;36.00;36.00;23.00
77320;PMS7003;66382;52.252;8.780;2023-02-15T09:57:56;27.50;27.50;15.00
77320;PMS7003;66382;52.252;8.780;2023-02-15T10:00:30;35.75;33.50;19.25
77320;PMS7003;66382;52.252;8.780;2023-02-15T10:03:11;34.25;34.25;21.75
77320;PMS7003;66382;52.252;8.780;2023-02-15T10:05:50;37.50;36.00;24.25
77320;PMS7003;66382;52.252;8.780;2023-02-15T10:08:40;33.50;33.50;21.00
77320;PMS7003;66382;52.252;8.780;2023-02-15T10:11:24;33.50;31.50;22.00
77320;PMS7003;66382;52.252;8.780;2023-02-15T10:13:57;30.00;30.00;19.25
77320;PMS7003;66382;52.252;8.780;2023-02-15T10:16:34;33.50;33.50;21.75
77320;PMS7003;66382;52.252;8.780;2023-02-15T10:19:09;29.25;29.25;21.25
77320;PMS7003;66382;52.252;8.780;2023-02-15T10:21:47;36.50;34.00;22.00
77320;PMS7003;66382;52.252;8.780;2023-02-15T10:24:27;24.25;23.75;20.00
77320;PMS7003;66382;52.252;8.780;2023-02-15T10:27:05;24.25;24.25;17.00
77320;PMS7003;66382;52.252;8.780;2023-02-15T10:29:37;26.75;26.75;18.00
77320;PMS7003;66382;52.252;8.780;2023-02-15T10:32:05;30.00;30.00;21.25
77320;PMS7003;66382;52.252;8.780;2023-02-15T10:34:43;25.00;25.00;17.25
77320;PMS7003;66382;52.252;8.780;2023-02-15T10:40:17;32.75;32.00;20.50
77320;PMS7003;66382;52.252;8.780;2023-02-15T10:42:54;28.25;28.25;19.50
77320;PMS7003;66382;52.252;8.780;2023-02-15T10:45:32;29.75;29.75;19.25
77320;PMS7003;66382;52.252;8.780;2023-02-15T10:48:19;30.75;30.75;20.50
77320;PMS7003;66382;52.252;8.780;2023-02-15T10:50:51;26.25;26.25;19.00
77320;PMS7003;66382;52.252;8.780;2023-02-15T10:53:28;28.50;28.50;18.75
77320;PMS7003;66382;52.252;8.780;2023-02-15T10:56:09;28.25;27.25;18.75
77320;PMS7003;66382;52.252;8.780;2023-02-15T10:58:45;17.75;17.75;12.75
77320;PMS7003;66382;52.252;8.780;2023-02-15T11:01:19;26.50;26.50;20.50
77320;PMS7003;66382;52.252;8.780;2023-02-15T11:06:56;26.50;26.50;19.00
77320;PMS7003;66382;52.252;8.780;2023-02-15T11:09:29;25.75;23.75;17.50
77320;PMS7003;66382;52.252;8.780;2023-02-15T11:12:02;29.75;29.75;20.00
77320;PMS7003;66382;52.252;8.780;2023-02-15T11:14:37;28.50;28.50;18.00
77320;PMS7003;66382;52.252;8.780;2023-02-15T11:17:10;25.50;25.50;17.50
77320;PMS7003;66382;52.252;8.780;2023-02-15T11:19:40;25.50;25.50;18.50
77320;PMS7003;66382;52.252;8.780;2023-02-15T11:22:11;25.00;25.00;18.50
77320;PMS7003;66382;52.252;8.780;2023-02-15T11:24:40;24.75;24.75;16.75
77320;PMS7003;66382;52.252;8.780;2023-02-15T11:27:15;23.75;23.75;17.00
77320;PMS7003;66382;52.252;8.780;2023-02-15T11:29:48;31.25;30.50;17.75
77320;PMS7003;66382;52.252;8.780;2023-02-15T11:32:23;27.75;27.75;19.25
77320;PMS7003;66382;52.252;8.780;2023-02-15T11:34:53;28.00;28.00;19.75
77320;PMS7003;66382;52.252;8.780;2023-02-15T11:37:24;28.75;28.75;20.00
77320;PMS7003;66382;52.252;8.780;2023-02-15T11:39:57;38.00;34.75;24.00
77320;PMS7003;66382;52.252;8.780;2023-02-15T11:42:24;29.50;29.50;19.00
77320;PMS7003;66382;52.252;8.780;2023-02-15T11:44:55;22.75;22.00;15.25
77320;PMS7003;66382;52.252;8.780;2023-02-15T11:47:27;27.25;27.25;18.50
77320;PMS7003;66382;52.252;8.780;2023-02-15T11:49:53;30.75;30.75;20.00
77320;PMS7003;66382;52.252;8.780;2023-02-15T11:52:19;28.75;28.75;19.50
77320;PMS7003;66382;52.252;8.780;2023-02-15T11:54:45;22.25;22.25;16.00
77320;PMS7003;66382;52.252;8.780;2023-02-15T11:57:16;26.75;26.75;19.00
77320;PMS7003;66382;52.252;8.780;2023-02-15T11:59:49;25.25;25.25;17.25
77320;PMS7003;66382;52.252;8.780;2023-02-15T12:02:22;31.25;31.00;20.00
77320;PMS7003;66382;52.252;8.780;2023-02-15T12:04:48;28.75;28.75;18.25
77320;PMS7003;66382;52.252;8.780;2023-02-15T12:07:20;24.25;24.25;15.75
77320;PMS7003;66382;52.252;8.780;2023-02-15T12:09:49;20.50;20.50;16.25
77320;PMS7003;66382;52.252;8.780;2023-02-15T12:12:23;28.00;28.00;19.50
77320;PMS7003;66382;52.252;8.780;2023-02-15T12:14:50;28.75;28.75;19.25
77320;PMS7003;66382;52.252;8.780;2023-02-15T12:17:18;32.75;32.00;23.25
77320;PMS7003;66382;52.252;8.780;2023-02-15T12:19:46;29.00;29.00;20.00
77320;PMS7003;66382;52.252;8.780;2023-02-15T12:22:18;30.50;29.25;21.00
77320;PMS7003;66382;52.252;8.780;2023-02-15T12:24:47;30.25;30.25;20.50
77320;PMS7003;66382;52.252;8.780;2023-02-15T12:27:16;25.75;25.75;18.00
77320;PMS7003;66382;52.252;8.780;2023-02-15T12:29:46;31.00;31.00;20.00
77320;PMS7003;66382;52.252;8.780;2023-02-15T12:32:16;34.75;32.75;21.50
77320;PMS7003;66382;52.252;8.780;2023-02-15T12:34:44;30.25;29.25;21.00
77320;PMS7003;66382;52.252;8.780;2023-02-15T12:37:14;29.00;29.00;19.00
77320;PMS7003;66382;52.252;8.780;2023-02-15T12:39:50;27.50;25.75;18.00
77320;PMS7003;66382;52.252;8.780;2023-02-15T12:42:18;33.00;32.25;19.75
77320;PMS7003;66382;52.252;8.780;2023-02-15T12:44:53;29.00;28.50;18.75
77320;PMS7003;66382;52.252;8.780;2023-02-15T12:47:25;28.00;28.00;20.50
77320;PMS7003;66382;52.252;8.780;2023-02-15T12:50:03;27.25;27.25;18.00
77320;PMS7003;66382;52.252;8.780;2023-02-15T12:52:32;24.00;24.00;18.50
77320;PMS7003;66382;52.252;8.780;2023-02-15T12:55:09;29.00;29.00;19.75
77320;PMS7003;66382;52.252;8.780;2023-02-15T12:57:36;30.00;30.00;20.00
77320;PMS7003;66382;52.252;8.780;2023-02-15T13:00:04;27.75;27.75;18.50
77320;PMS7003;66382;52.252;8.780;2023-02-15T13:02:49;25.75;25.25;19.75
77320;PMS7003;66382;52.252;8.780;2023-02-15T13:05:18;25.50;25.50;19.75
77320;PMS7003;66382;52.252;8.780;2023-02-15T13:07:50;30.00;29.50;20.75
77320;PMS7003;66382;52.252;8.780;2023-02-15T13:10:21;13.50;13.50;7.25
77320;PMS7003;66382;52.252;8.780;2023-02-15T13:12:49;31.75;31.25;19.50
77320;PMS7003;66382;52.252;8.780;2023-02-15T13:15:24;29.00;29.00;19.00
77320;PMS7003;66382;52.252;8.780;2023-02-15T13:17:54;31.75;30.25;21.00
77320;PMS7003;66382;52.252;8.780;2023-02-15T13:20:21;28.50;28.50;20.25
77320;PMS7003;66382;52.252;8.780;2023-02-15T13:22:47;26.00;26.00;19.00
77320;PMS7003;66382;52.252;8.780;2023-02-15T13:25:17;28.25;28.25;18.50
77320;PMS7003;66382;52.252;8.780;2023-02-15T13:27:45;26.00;26.00;19.75
77320;PMS7003;66382;52.252;8.780;2023-02-15T13:30:16;26.25;26.25;18.25
77320;PMS7003;66382;52.252;8.780;2023-02-15T13:32:49;25.75;25.75;19.00
77320;PMS7003;66382;52.252;8.780;2023-02-15T13:35:19;26.50;26.00;18.75
77320;PMS7003;66382;52.252;8.780;2023-02-15T13:38:00;23.75;23.75;15.25
77320;PMS7003;66382;52.252;8.780;2023-02-15T13:40:32;29.25;29.25;20.00
77320;PMS7003;66382;52.252;8.780;2023-02-15T13:43:03;28.00;28.00;20.25
77320;PMS7003;66382;52.252;8.780;2023-02-15T13:45:47;24.50;24.50;19.00
77320;PMS7003;66382;52.252;8.780;2023-02-15T13:48:28;26.00;25.00;18.25
77320;PMS7003;66382;52.252;8.780;2023-02-15T13:51:06;25.75;25.25;19.25
77320;PMS7003;66382;52.252;8.780;2023-02-15T13:53:44;28.25;28.25;20.25
77320;PMS7003;66382;52.252;8.780;2023-02-15T13:56:23;23.25;23.25;16.75
77320;PMS7003;66382;52.252;8.780;2023-02-15T13:59:00;28.25;28.25;21.00
77320;PMS7003;66382;52.252;8.780;2023-02-15T14:01:39;25.75;25.00;17.25
77320;PMS7003;66382;52.252;8.780;2023-02-15T14:10:14;27.50;25.75;17.50
77320;PMS7003;66382;52.252;8.780;2023-02-15T14:13:02;26.25;25.75;18.25
77320;PMS7003;66382;52.252;8.780;2023-02-15T14:16:08;32.75;31.50;21.50
77320;PMS7003;66382;52.252;8.780;2023-02-15T14:18:41;29.00;29.00;20.50
77320;PMS7003;66382;52.252;8.780;2023-02-15T14:21:15;28.50;28.50;20.75
77320;PMS7003;66382;52.252;8.780;2023-02-15T14:23:48;25.75;25.75;19.00
77320;PMS7003;66382;52.252;8.780;2023-02-15T14:26:25;25.00;25.00;18.00